sensor_id;sensor_type;location;lat;lon;timestamp;P1;durP1;ratioP1;P2;durP2;ratioP2
1699;SDS011;847;48.058;7.810;2022-08-16T00:01:43;5.40;;;4.90;;
1699;SDS011;847;48.058;7.810;2022-08-16T00:04:10;9.27;;;5.33;;
1699;SDS011;847;48.058;7.810;2022-08-16T00:06:38;5.40;;;4.60;;
1699;SDS011;847;48.058;7.810;2022-08-16T00:09:05;7.17;;;4.60;;
1699;SDS011;847;48.058;7.810;2022-08-16T00:11:33;5.50;;;5.00;;
1699;SDS011;847;48.058;7.810;2022-08-16T00:14:01;7.83;;;5.40;;
1699;SDS011;847;48.058;7.810;2022-08-16T00:16:29;4.70;;;4.30;;
1699;SDS011;847;48.058;7.810;2022-08-16T00:18:56;5.93;;;5.20;;
1699;SDS011;847;48.058;7.810;2022-08-16T00:21:23;5.57;;;5.07;;
1699;SDS011;847;48.058;7.810;2022-08-16T00:23:51;5.20;;;4.77;;
1699;SDS011;847;48.058;7.810;2022-08-16T00:26:18;5.53;;;5.03;;
1699;SDS011;847;48.058;7.810;2022-08-16T00:28:45;5.00;;;4.60;;
1699;SDS011;847;48.058;7.810;2022-08-16T00:31:12;6.27;;;5.47;;
1699;SDS011;847;48.058;7.810;2022-08-16T00:33:38;6.23;;;4.90;;
1699;SDS011;847;48.058;7.810;2022-08-16T00:36:06;5.97;;;4.47;;
1699;SDS011;847;48.058;7.810;2022-08-16T00:38:33;4.97;;;4.57;;
1699;SDS011;847;48.058;7.810;2022-08-16T00:41:01;8.00;;;5.10;;
1699;SDS011;847;48.058;7.810;2022-08-16T00:43:30;5.30;;;4.80;;
1699;SDS011;847;48.058;7.810;2022-08-16T00:46:02;5.40;;;4.90;;
1699;SDS011;847;48.058;7.810;2022-08-16T00:48:35;5.50;;;5.00;;
1699;SDS011;847;48.058;7.810;2022-08-16T00:51:02;4.97;;;4.57;;
1699;SDS011;847;48.058;7.810;2022-08-16T00:53:30;6.23;;;5.20;;
1699;SDS011;847;48.058;7.810;2022-08-16T00:55:59;6.10;;;4.90;;
1699;SDS011;847;48.058;7.810;2022-08-16T00:58:30;6.43;;;4.50;;
1699;SDS011;847;48.058;7.810;2022-08-16T01:01:00;5.37;;;4.87;;
1699;SDS011;847;48.058;7.810;2022-08-16T01:03:26;6.20;;;5.60;;
1699;SDS011;847;48.058;7.810;2022-08-16T01:05:54;6.30;;;4.63;;
1699;SDS011;847;48.058;7.810;2022-08-16T01:08:21;5.70;;;5.20;;
1699;SDS011;847;48.058;7.810;2022-08-16T01:10:49;8.90;;;5.17;;
1699;SDS011;847;48.058;7.810;2022-08-16T01:13:19;4.93;;;4.53;;
1699;SDS011;847;48.058;7.810;2022-08-16T01:15:49;6.93;;;4.93;;
1699;SDS011;847;48.058;7.810;2022-08-16T01:18:20;5.20;;;4.80;;
1699;SDS011;847;48.058;7.810;2022-08-16T01:20:50;5.60;;;5.20;;
1699;SDS011;847;48.058;7.810;2022-08-16T01:23:23;5.27;;;4.70;;
1699;SDS011;847;48.058;7.810;2022-08-16T01:25:56;5.70;;;5.30;;
1699;SDS011;847;48.058;7.810;2022-08-16T01:28:24;5.53;;;5.03;;
1699;SDS011;847;48.058;7.810;2022-08-16T01:30:54;6.33;;;5.73;;
1699;SDS011;847;48.058;7.810;2022-08-16T01:33:22;5.67;;;5.17;;
1699;SDS011;847;48.058;7.810;2022-08-16T01:35:50;6.00;;;5.20;;
1699;SDS011;847;48.058;7.810;2022-08-16T01:38:21;5.97;;;5.27;;
1699;SDS011;847;48.058;7.810;2022-08-16T01:40:52;6.47;;;5.97;;
1699;SDS011;847;48.058;7.810;2022-08-16T01:43:23;5.87;;;5.37;;
1699;SDS011;847;48.058;7.810;2022-08-16T01:45:52;6.93;;;6.33;;
1699;SDS011;847;48.058;7.810;2022-08-16T01:48:20;5.90;;;5.30;;
1699;SDS011;847;48.058;7.810;2022-08-16T01:50:49;6.90;;;5.40;;
1699;SDS011;847;48.058;7.810;2022-08-16T01:53:17;5.80;;;5.40;;
1699;SDS011;847;48.058;7.810;2022-08-16T01:55:44;5.80;;;5.30;;
1699;SDS011;847;48.058;7.810;2022-08-16T01:58:11;6.27;;;5.77;;
1699;SDS011;847;48.058;7.810;2022-08-16T02:00:40;6.23;;;5.17;;
1699;SDS011;847;48.058;7.810;2022-08-16T02:03:07;6.83;;;5.13;;
1699;SDS011;847;48.058;7.810;2022-08-16T02:05:34;6.77;;;6.20;;
1699;SDS011;847;48.058;7.810;2022-08-16T02:08:04;6.17;;;5.53;;
1699;SDS011;847;48.058;7.810;2022-08-16T02:10:32;6.60;;;5.97;;
1699;SDS011;847;48.058;7.810;2022-08-16T02:12:59;5.40;;;5.00;;
1699;SDS011;847;48.058;7.810;2022-08-16T02:15:27;5.90;;;5.30;;
1699;SDS011;847;48.058;7.810;2022-08-16T02:17:57;5.60;;;5.20;;
1699;SDS011;847;48.058;7.810;2022-08-16T02:20:25;6.00;;;5.40;;
1699;SDS011;847;48.058;7.810;2022-08-16T02:22:53;5.80;;;5.30;;
1699;SDS011;847;48.058;7.810;2022-08-16T02:25:20;6.43;;;5.93;;
1699;SDS011;847;48.058;7.810;2022-08-16T02:27:46;6.53;;;6.03;;
1699;SDS011;847;48.058;7.810;2022-08-16T02:30:15;6.43;;;5.67;;
1699;SDS011;847;48.058;7.810;2022-08-16T02:32:45;6.20;;;5.53;;
1699;SDS011;847;48.058;7.810;2022-08-16T02:35:13;6.57;;;5.97;;
1699;SDS011;847;48.058;7.810;2022-08-16T02:37:43;6.93;;;6.00;;
1699;SDS011;847;48.058;7.810;2022-08-16T02:40:11;6.43;;;5.70;;
1699;SDS011;847;48.058;7.810;2022-08-16T02:42:40;6.13;;;5.63;;
1699;SDS011;847;48.058;7.810;2022-08-16T02:45:07;6.80;;;5.97;;
1699;SDS011;847;48.058;7.810;2022-08-16T02:47:35;6.53;;;6.03;;
1699;SDS011;847;48.058;7.810;2022-08-16T02:50:02;6.67;;;6.07;;
1699;SDS011;847;48.058;7.810;2022-08-16T02:52:30;6.60;;;6.00;;
1699;SDS011;847;48.058;7.810;2022-08-16T02:54:57;7.93;;;6.23;;
1699;SDS011;847;48.058;7.810;2022-08-16T02:57:24;6.93;;;6.33;;
1699;SDS011;847;48.058;7.810;2022-08-16T02:59:51;6.27;;;5.77;;
1699;SDS011;847;48.058;7.810;2022-08-16T03:02:18;6.90;;;6.30;;
1699;SDS011;847;48.058;7.810;2022-08-16T03:04:45;7.20;;;6.50;;
1699;SDS011;847;48.058;7.810;2022-08-16T03:07:12;6.43;;;5.83;;
1699;SDS011;847;48.058;7.810;2022-08-16T03:09:41;6.47;;;5.43;;
1699;SDS011;847;48.058;7.810;2022-08-16T03:12:07;6.90;;;6.33;;
1699;SDS011;847;48.058;7.810;2022-08-16T03:14:34;6.03;;;5.50;;
1699;SDS011;847;48.058;7.810;2022-08-16T03:17:01;6.53;;;5.77;;
1699;SDS011;847;48.058;7.810;2022-08-16T03:19:29;6.40;;;5.80;;
1699;SDS011;847;48.058;7.810;2022-08-16T03:21:57;7.43;;;6.20;;
1699;SDS011;847;48.058;7.810;2022-08-16T03:24:23;6.60;;;6.00;;
1699;SDS011;847;48.058;7.810;2022-08-16T03:26:53;6.40;;;5.80;;
1699;SDS011;847;48.058;7.810;2022-08-16T03:29:23;6.63;;;6.13;;
1699;SDS011;847;48.058;7.810;2022-08-16T03:31:51;7.10;;;6.43;;
1699;SDS011;847;48.058;7.810;2022-08-16T03:34:18;7.33;;;6.63;;
1699;SDS011;847;48.058;7.810;2022-08-16T03:36:45;6.20;;;5.60;;
1699;SDS011;847;48.058;7.810;2022-08-16T03:39:12;7.03;;;5.63;;
1699;SDS011;847;48.058;7.810;2022-08-16T03:41:38;8.93;;;6.47;;
1699;SDS011;847;48.058;7.810;2022-08-16T03:44:07;7.63;;;7.00;;
1699;SDS011;847;48.058;7.810;2022-08-16T03:46:34;7.23;;;6.53;;
1699;SDS011;847;48.058;7.810;2022-08-16T03:49:01;6.93;;;6.27;;
1699;SDS011;847;48.058;7.810;2022-08-16T03:51:28;7.17;;;6.47;;
1699;SDS011;847;48.058;7.810;2022-08-16T03:53:54;7.03;;;6.20;;
1699;SDS011;847;48.058;7.810;2022-08-16T03:56:21;7.97;;;6.23;;
1699;SDS011;847;48.058;7.810;2022-08-16T03:58:51;6.80;;;6.20;;
1699;SDS011;847;48.058;7.810;2022-08-16T04:01:21;7.50;;;6.87;;
1699;SDS011;847;48.058;7.810;2022-08-16T04:03:50;7.07;;;6.47;;
1699;SDS011;847;48.058;7.810;2022-08-16T04:06:16;6.97;;;6.37;;
1699;SDS011;847;48.058;7.810;2022-08-16T04:08:44;7.30;;;6.70;;
1699;SDS011;847;48.058;7.810;2022-08-16T04:11:12;8.13;;;7.43;;
1699;SDS011;847;48.058;7.810;2022-08-16T04:13:39;9.00;;;8.20;;
1699;SDS011;847;48.058;7.810;2022-08-16T04:16:06;7.17;;;6.50;;
1699;SDS011;847;48.058;7.810;2022-08-16T04:18:35;7.50;;;6.80;;
1699;SDS011;847;48.058;7.810;2022-08-16T04:21:02;10.13;;;6.87;;
1699;SDS011;847;48.058;7.810;2022-08-16T04:23:30;7.57;;;6.90;;
1699;SDS011;847;48.058;7.810;2022-08-16T04:25:57;7.23;;;6.60;;
1699;SDS011;847;48.058;7.810;2022-08-16T04:28:23;7.60;;;7.00;;
1699;SDS011;847;48.058;7.810;2022-08-16T04:30:50;7.17;;;6.57;;
1699;SDS011;847;48.058;7.810;2022-08-16T04:33:17;7.90;;;7.27;;
1699;SDS011;847;48.058;7.810;2022-08-16T04:35:45;7.17;;;6.50;;
1699;SDS011;847;48.058;7.810;2022-08-16T04:38:13;6.77;;;6.17;;
1699;SDS011;847;48.058;7.810;2022-08-16T04:40:40;6.87;;;6.27;;
1699;SDS011;847;48.058;7.810;2022-08-16T04:43:07;8.13;;;6.90;;
1699;SDS011;847;48.058;7.810;2022-08-16T04:45:34;8.17;;;7.43;;
1699;SDS011;847;48.058;7.810;2022-08-16T04:48:01;6.77;;;6.17;;
1699;SDS011;847;48.058;7.810;2022-08-16T04:50:29;6.90;;;6.23;;
1699;SDS011;847;48.058;7.810;2022-08-16T04:52:57;7.40;;;6.60;;
1699;SDS011;847;48.058;7.810;2022-08-16T04:55:25;7.60;;;6.80;;
1699;SDS011;847;48.058;7.810;2022-08-16T04:57:53;7.33;;;6.60;;
1699;SDS011;847;48.058;7.810;2022-08-16T05:00:22;7.57;;;6.70;;
1699;SDS011;847;48.058;7.810;2022-08-16T05:02:51;7.37;;;6.63;;
1699;SDS011;847;48.058;7.810;2022-08-16T05:05:19;8.03;;;6.83;;
1699;SDS011;847;48.058;7.810;2022-08-16T05:07:46;8.03;;;7.23;;
1699;SDS011;847;48.058;7.810;2022-08-16T05:10:15;7.80;;;6.93;;
1699;SDS011;847;48.058;7.810;2022-08-16T05:12:42;8.40;;;7.60;;
1699;SDS011;847;48.058;7.810;2022-08-16T05:15:09;7.17;;;6.50;;
1699;SDS011;847;48.058;7.810;2022-08-16T05:17:37;8.20;;;7.40;;
1699;SDS011;847;48.058;7.810;2022-08-16T05:20:04;8.27;;;7.43;;
1699;SDS011;847;48.058;7.810;2022-08-16T05:22:33;8.20;;;7.40;;
1699;SDS011;847;48.058;7.810;2022-08-16T05:25:00;8.90;;;7.27;;
1699;SDS011;847;48.058;7.810;2022-08-16T05:27:28;7.27;;;6.50;;
1699;SDS011;847;48.058;7.810;2022-08-16T05:29:55;8.10;;;7.40;;
1699;SDS011;847;48.058;7.810;2022-08-16T05:32:22;8.23;;;7.43;;
1699;SDS011;847;48.058;7.810;2022-08-16T05:34:49;8.37;;;7.40;;
1699;SDS011;847;48.058;7.810;2022-08-16T05:37:16;7.90;;;7.10;;
1699;SDS011;847;48.058;7.810;2022-08-16T05:39:42;8.30;;;7.70;;
1699;SDS011;847;48.058;7.810;2022-08-16T05:42:09;8.57;;;7.77;;
1699;SDS011;847;48.058;7.810;2022-08-16T05:44:37;8.27;;;7.47;;
1699;SDS011;847;48.058;7.810;2022-08-16T05:47:04;8.03;;;7.43;;
1699;SDS011;847;48.058;7.810;2022-08-16T05:49:31;8.20;;;7.40;;
1699;SDS011;847;48.058;7.810;2022-08-16T05:51:58;9.20;;;7.90;;
1699;SDS011;847;48.058;7.810;2022-08-16T05:54:26;7.80;;;7.10;;
1699;SDS011;847;48.058;7.810;2022-08-16T05:56:53;7.83;;;7.13;;
1699;SDS011;847;48.058;7.810;2022-08-16T05:59:21;8.47;;;7.77;;
1699;SDS011;847;48.058;7.810;2022-08-16T06:01:49;8.10;;;7.40;;
1699;SDS011;847;48.058;7.810;2022-08-16T06:04:16;9.17;;;7.70;;
1699;SDS011;847;48.058;7.810;2022-08-16T06:06:44;8.53;;;7.80;;
1699;SDS011;847;48.058;7.810;2022-08-16T06:09:12;9.13;;;7.80;;
1699;SDS011;847;48.058;7.810;2022-08-16T06:11:43;9.83;;;8.50;;
1699;SDS011;847;48.058;7.810;2022-08-16T06:14:10;9.10;;;8.40;;
1699;SDS011;847;48.058;7.810;2022-08-16T06:16:37;8.87;;;8.07;;
1699;SDS011;847;48.058;7.810;2022-08-16T06:19:06;9.00;;;8.30;;
1699;SDS011;847;48.058;7.810;2022-08-16T06:21:32;9.00;;;8.10;;
1699;SDS011;847;48.058;7.810;2022-08-16T06:23:59;8.50;;;7.70;;
1699;SDS011;847;48.058;7.810;2022-08-16T06:26:26;8.23;;;7.53;;
1699;SDS011;847;48.058;7.810;2022-08-16T06:28:53;9.60;;;8.60;;
1699;SDS011;847;48.058;7.810;2022-08-16T06:31:20;9.00;;;7.53;;
1699;SDS011;847;48.058;7.810;2022-08-16T06:33:46;9.43;;;8.50;;
1699;SDS011;847;48.058;7.810;2022-08-16T06:36:15;8.40;;;7.60;;
1699;SDS011;847;48.058;7.810;2022-08-16T06:38:42;10.17;;;8.40;;
1699;SDS011;847;48.058;7.810;2022-08-16T06:41:09;8.60;;;8.00;;
1699;SDS011;847;48.058;7.810;2022-08-16T06:43:36;9.40;;;8.23;;
1699;SDS011;847;48.058;7.810;2022-08-16T06:46:05;11.10;;;8.17;;
1699;SDS011;847;48.058;7.810;2022-08-16T06:48:34;9.67;;;7.73;;
1699;SDS011;847;48.058;7.810;2022-08-16T06:51:04;9.87;;;8.97;;
1699;SDS011;847;48.058;7.810;2022-08-16T06:53:34;8.53;;;7.73;;
1699;SDS011;847;48.058;7.810;2022-08-16T06:56:01;8.30;;;7.53;;
1699;SDS011;847;48.058;7.810;2022-08-16T06:58:30;11.53;;;9.43;;
1699;SDS011;847;48.058;7.810;2022-08-16T07:00:58;8.83;;;7.90;;
1699;SDS011;847;48.058;7.810;2022-08-16T07:03:25;9.77;;;8.97;;
1699;SDS011;847;48.058;7.810;2022-08-16T07:05:52;9.83;;;7.93;;
1699;SDS011;847;48.058;7.810;2022-08-16T07:08:21;8.50;;;7.80;;
1699;SDS011;847;48.058;7.810;2022-08-16T07:10:49;9.37;;;8.43;;
1699;SDS011;847;48.058;7.810;2022-08-16T07:13:16;12.20;;;8.50;;
1699;SDS011;847;48.058;7.810;2022-08-16T07:15:43;9.10;;;8.20;;
1699;SDS011;847;48.058;7.810;2022-08-16T07:18:10;9.50;;;8.60;;
1699;SDS011;847;48.058;7.810;2022-08-16T07:20:39;10.23;;;9.10;;
1699;SDS011;847;48.058;7.810;2022-08-16T07:23:06;8.90;;;8.10;;
1699;SDS011;847;48.058;7.810;2022-08-16T07:25:33;8.60;;;8.00;;
1699;SDS011;847;48.058;7.810;2022-08-16T07:28:02;8.87;;;8.10;;
1699;SDS011;847;48.058;7.810;2022-08-16T07:30:31;8.60;;;7.80;;
1699;SDS011;847;48.058;7.810;2022-08-16T07:33:02;8.20;;;7.57;;
1699;SDS011;847;48.058;7.810;2022-08-16T07:35:30;8.67;;;7.87;;
1699;SDS011;847;48.058;7.810;2022-08-16T07:37:56;8.80;;;8.10;;
1699;SDS011;847;48.058;7.810;2022-08-16T07:40:24;8.37;;;7.13;;
1699;SDS011;847;48.058;7.810;2022-08-16T07:42:50;8.13;;;7.43;;
1699;SDS011;847;48.058;7.810;2022-08-16T07:45:19;9.17;;;7.40;;
1699;SDS011;847;48.058;7.810;2022-08-16T07:47:46;9.00;;;8.20;;
1699;SDS011;847;48.058;7.810;2022-08-16T07:50:13;9.03;;;8.13;;
1699;SDS011;847;48.058;7.810;2022-08-16T07:52:41;7.97;;;7.23;;
1699;SDS011;847;48.058;7.810;2022-08-16T07:55:09;8.40;;;7.07;;
1699;SDS011;847;48.058;7.810;2022-08-16T07:57:37;7.80;;;6.87;;
1699;SDS011;847;48.058;7.810;2022-08-16T08:00:05;8.33;;;6.63;;
1699;SDS011;847;48.058;7.810;2022-08-16T08:02:33;8.63;;;6.50;;
1699;SDS011;847;48.058;7.810;2022-08-16T08:05:00;7.40;;;6.70;;
1699;SDS011;847;48.058;7.810;2022-08-16T08:07:27;7.77;;;6.20;;
1699;SDS011;847;48.058;7.810;2022-08-16T08:09:54;7.37;;;6.77;;
1699;SDS011;847;48.058;7.810;2022-08-16T08:12:21;6.83;;;6.23;;
1699;SDS011;847;48.058;7.810;2022-08-16T08:14:49;7.67;;;5.57;;
1699;SDS011;847;48.058;7.810;2022-08-16T08:17:17;6.90;;;6.20;;
1699;SDS011;847;48.058;7.810;2022-08-16T08:19:48;7.80;;;6.90;;
1699;SDS011;847;48.058;7.810;2022-08-16T08:22:15;9.47;;;6.80;;
1699;SDS011;847;48.058;7.810;2022-08-16T08:24:41;7.23;;;6.47;;
1699;SDS011;847;48.058;7.810;2022-08-16T08:27:09;6.73;;;6.20;;
1699;SDS011;847;48.058;7.810;2022-08-16T08:29:36;6.70;;;6.10;;
1699;SDS011;847;48.058;7.810;2022-08-16T08:32:03;8.93;;;6.83;;
1699;SDS011;847;48.058;7.810;2022-08-16T08:34:31;7.03;;;6.40;;
1699;SDS011;847;48.058;7.810;2022-08-16T08:36:59;6.77;;;6.10;;
1699;SDS011;847;48.058;7.810;2022-08-16T08:39:26;6.70;;;6.20;;
1699;SDS011;847;48.058;7.810;2022-08-16T08:41:53;8.00;;;6.67;;
1699;SDS011;847;48.058;7.810;2022-08-16T08:44:20;9.77;;;6.37;;
1699;SDS011;847;48.058;7.810;2022-08-16T08:46:46;8.00;;;6.37;;
1699;SDS011;847;48.058;7.810;2022-08-16T08:49:13;7.00;;;6.30;;
1699;SDS011;847;48.058;7.810;2022-08-16T08:51:40;6.93;;;6.33;;
1699;SDS011;847;48.058;7.810;2022-08-16T08:54:08;10.50;;;7.10;;
1699;SDS011;847;48.058;7.810;2022-08-16T08:56:35;8.13;;;6.17;;
1699;SDS011;847;48.058;7.810;2022-08-16T08:59:02;7.00;;;6.23;;
1699;SDS011;847;48.058;7.810;2022-08-16T09:01:31;6.53;;;5.70;;
1699;SDS011;847;48.058;7.810;2022-08-16T09:04:03;7.60;;;6.33;;
1699;SDS011;847;48.058;7.810;2022-08-16T09:06:30;6.97;;;6.07;;
1699;SDS011;847;48.058;7.810;2022-08-16T09:08:57;7.13;;;6.43;;
1699;SDS011;847;48.058;7.810;2022-08-16T09:11:26;7.13;;;6.03;;
1699;SDS011;847;48.058;7.810;2022-08-16T09:13:53;6.87;;;6.37;;
1699;SDS011;847;48.058;7.810;2022-08-16T09:16:20;6.97;;;6.37;;
1699;SDS011;847;48.058;7.810;2022-08-16T09:18:47;6.13;;;5.73;;
1699;SDS011;847;48.058;7.810;2022-08-16T09:21:13;6.00;;;5.60;;
1699;SDS011;847;48.058;7.810;2022-08-16T09:23:41;6.33;;;5.80;;
1699;SDS011;847;48.058;7.810;2022-08-16T09:26:08;5.60;;;5.10;;
1699;SDS011;847;48.058;7.810;2022-08-16T09:28:37;6.60;;;6.10;;
1699;SDS011;847;48.058;7.810;2022-08-16T09:31:04;7.03;;;5.73;;
1699;SDS011;847;48.058;7.810;2022-08-16T09:33:31;10.80;;;5.87;;
1699;SDS011;847;48.058;7.810;2022-08-16T09:35:59;6.13;;;5.50;;
1699;SDS011;847;48.058;7.810;2022-08-16T09:38:26;8.13;;;6.03;;
1699;SDS011;847;48.058;7.810;2022-08-16T09:40:52;7.13;;;6.43;;
1699;SDS011;847;48.058;7.810;2022-08-16T09:43:22;6.10;;;5.50;;
1699;SDS011;847;48.058;7.810;2022-08-16T09:45:50;6.83;;;5.97;;
1699;SDS011;847;48.058;7.810;2022-08-16T09:48:17;6.20;;;5.60;;
1699;SDS011;847;48.058;7.810;2022-08-16T09:50:44;7.40;;;5.60;;
1699;SDS011;847;48.058;7.810;2022-08-16T09:53:12;6.33;;;5.83;;
1699;SDS011;847;48.058;7.810;2022-08-16T09:55:41;6.70;;;5.53;;
1699;SDS011;847;48.058;7.810;2022-08-16T09:58:10;6.03;;;5.53;;
1699;SDS011;847;48.058;7.810;2022-08-16T10:00:37;5.80;;;5.30;;
1699;SDS011;847;48.058;7.810;2022-08-16T10:03:05;8.73;;;6.00;;
1699;SDS011;847;48.058;7.810;2022-08-16T10:05:33;8.13;;;6.43;;
1699;SDS011;847;48.058;7.810;2022-08-16T10:08:02;6.00;;;5.60;;
1699;SDS011;847;48.058;7.810;2022-08-16T10:10:29;6.80;;;5.80;;
1699;SDS011;847;48.058;7.810;2022-08-16T10:12:56;5.83;;;5.30;;
1699;SDS011;847;48.058;7.810;2022-08-16T10:15:39;5.73;;;5.13;;
1699;SDS011;847;48.058;7.810;2022-08-16T10:18:09;6.33;;;5.73;;
1699;SDS011;847;48.058;7.810;2022-08-16T10:20:38;6.17;;;5.60;;
1699;SDS011;847;48.058;7.810;2022-08-16T10:23:09;5.27;;;4.77;;
1699;SDS011;847;48.058;7.810;2022-08-16T10:25:37;4.97;;;4.47;;
1699;SDS011;847;48.058;7.810;2022-08-16T10:28:06;4.50;;;4.10;;
1699;SDS011;847;48.058;7.810;2022-08-16T10:30:33;6.37;;;4.70;;
1699;SDS011;847;48.058;7.810;2022-08-16T10:33:00;5.60;;;5.10;;
1699;SDS011;847;48.058;7.810;2022-08-16T10:35:28;5.40;;;4.97;;
1699;SDS011;847;48.058;7.810;2022-08-16T10:37:56;5.17;;;4.67;;
1699;SDS011;847;48.058;7.810;2022-08-16T10:40:23;5.40;;;4.90;;
1699;SDS011;847;48.058;7.810;2022-08-16T10:42:49;5.87;;;5.30;;
1699;SDS011;847;48.058;7.810;2022-08-16T10:45:16;5.00;;;4.60;;
1699;SDS011;847;48.058;7.810;2022-08-16T10:47:44;5.67;;;5.00;;
1699;SDS011;847;48.058;7.810;2022-08-16T10:50:13;5.70;;;4.87;;
1699;SDS011;847;48.058;7.810;2022-08-16T10:52:41;4.80;;;4.40;;
1699;SDS011;847;48.058;7.810;2022-08-16T10:55:08;6.37;;;4.60;;
1699;SDS011;847;48.058;7.810;2022-08-16T10:57:36;4.90;;;4.50;;
1699;SDS011;847;48.058;7.810;2022-08-16T11:00:04;5.30;;;4.80;;
1699;SDS011;847;48.058;7.810;2022-08-16T11:02:34;5.27;;;4.87;;
1699;SDS011;847;48.058;7.810;2022-08-16T11:05:02;5.93;;;5.33;;
1699;SDS011;847;48.058;7.810;2022-08-16T11:07:31;5.23;;;4.83;;
1699;SDS011;847;48.058;7.810;2022-08-16T11:10:02;4.73;;;4.40;;
1699;SDS011;847;48.058;7.810;2022-08-16T11:12:34;4.63;;;4.33;;
1699;SDS011;847;48.058;7.810;2022-08-16T11:15:05;6.93;;;4.93;;
1699;SDS011;847;48.058;7.810;2022-08-16T11:17:33;7.00;;;4.40;;
1699;SDS011;847;48.058;7.810;2022-08-16T11:20:01;4.23;;;3.73;;
1699;SDS011;847;48.058;7.810;2022-08-16T11:22:28;4.20;;;3.60;;
1699;SDS011;847;48.058;7.810;2022-08-16T11:24:55;4.13;;;3.70;;
1699;SDS011;847;48.058;7.810;2022-08-16T11:27:23;4.13;;;3.83;;
1699;SDS011;847;48.058;7.810;2022-08-16T11:29:51;3.63;;;3.33;;
1699;SDS011;847;48.058;7.810;2022-08-16T11:32:20;4.50;;;4.10;;
1699;SDS011;847;48.058;7.810;2022-08-16T11:34:52;4.17;;;3.77;;
1699;SDS011;847;48.058;7.810;2022-08-16T11:37:20;5.23;;;3.80;;
1699;SDS011;847;48.058;7.810;2022-08-16T11:39:47;4.63;;;4.17;;
1699;SDS011;847;48.058;7.810;2022-08-16T11:42:14;5.17;;;4.40;;
1699;SDS011;847;48.058;7.810;2022-08-16T11:44:42;4.67;;;4.20;;
1699;SDS011;847;48.058;7.810;2022-08-16T11:47:09;4.33;;;4.00;;
1699;SDS011;847;48.058;7.810;2022-08-16T11:49:35;4.70;;;4.30;;
1699;SDS011;847;48.058;7.810;2022-08-16T11:52:02;6.40;;;4.07;;
1699;SDS011;847;48.058;7.810;2022-08-16T11:54:29;4.33;;;3.93;;
1699;SDS011;847;48.058;7.810;2022-08-16T11:56:57;5.77;;;4.67;;
1699;SDS011;847;48.058;7.810;2022-08-16T11:59:25;5.93;;;4.10;;
1699;SDS011;847;48.058;7.810;2022-08-16T12:01:54;4.33;;;4.03;;
1699;SDS011;847;48.058;7.810;2022-08-16T12:04:21;7.63;;;5.20;;
1699;SDS011;847;48.058;7.810;2022-08-16T12:06:51;4.10;;;3.70;;
1699;SDS011;847;48.058;7.810;2022-08-16T12:09:18;4.17;;;3.77;;
1699;SDS011;847;48.058;7.810;2022-08-16T12:11:44;4.47;;;4.10;;
1699;SDS011;847;48.058;7.810;2022-08-16T12:14:11;4.23;;;3.77;;
1699;SDS011;847;48.058;7.810;2022-08-16T12:16:38;7.50;;;3.33;;
1699;SDS011;847;48.058;7.810;2022-08-16T12:19:06;5.63;;;3.20;;
1699;SDS011;847;48.058;7.810;2022-08-16T12:21:34;4.17;;;3.87;;
1699;SDS011;847;48.058;7.810;2022-08-16T12:24:01;4.07;;;3.67;;
1699;SDS011;847;48.058;7.810;2022-08-16T12:26:29;4.53;;;3.40;;
1699;SDS011;847;48.058;7.810;2022-08-16T12:28:56;3.97;;;3.10;;
1699;SDS011;847;48.058;7.810;2022-08-16T12:31:27;4.40;;;4.00;;
1699;SDS011;847;48.058;7.810;2022-08-16T12:33:55;5.50;;;3.40;;
1699;SDS011;847;48.058;7.810;2022-08-16T12:36:23;3.93;;;3.23;;
1699;SDS011;847;48.058;7.810;2022-08-16T12:38:51;3.53;;;3.23;;
1699;SDS011;847;48.058;7.810;2022-08-16T12:41:19;3.50;;;3.20;;
1699;SDS011;847;48.058;7.810;2022-08-16T12:43:46;4.33;;;4.00;;
1699;SDS011;847;48.058;7.810;2022-08-16T12:46:13;5.30;;;4.40;;
1699;SDS011;847;48.058;7.810;2022-08-16T12:48:40;4.03;;;3.73;;
1699;SDS011;847;48.058;7.810;2022-08-16T12:51:26;5.10;;;4.20;;
1699;SDS011;847;48.058;7.810;2022-08-16T12:53:56;3.90;;;3.30;;
1699;SDS011;847;48.058;7.810;2022-08-16T12:56:25;4.53;;;3.77;;
1699;SDS011;847;48.058;7.810;2022-08-16T12:58:54;3.50;;;3.20;;
1699;SDS011;847;48.058;7.810;2022-08-16T13:01:23;4.50;;;4.00;;
1699;SDS011;847;48.058;7.810;2022-08-16T13:03:52;3.77;;;3.23;;
1699;SDS011;847;48.058;7.810;2022-08-16T13:06:23;4.57;;;3.53;;
1699;SDS011;847;48.058;7.810;2022-08-16T13:08:53;3.60;;;3.30;;
1699;SDS011;847;48.058;7.810;2022-08-16T13:11:22;5.43;;;3.93;;
1699;SDS011;847;48.058;7.810;2022-08-16T13:13:59;5.60;;;3.80;;
1699;SDS011;847;48.058;7.810;2022-08-16T13:16:26;4.30;;;3.53;;
1699;SDS011;847;48.058;7.810;2022-08-16T13:18:54;4.50;;;4.10;;
1699;SDS011;847;48.058;7.810;2022-08-16T13:21:21;4.53;;;3.17;;
1699;SDS011;847;48.058;7.810;2022-08-16T13:23:49;4.10;;;3.70;;
1699;SDS011;847;48.058;7.810;2022-08-16T13:26:17;3.87;;;3.43;;
1699;SDS011;847;48.058;7.810;2022-08-16T13:28:43;3.53;;;3.23;;
1699;SDS011;847;48.058;7.810;2022-08-16T13:31:10;5.33;;;3.70;;
1699;SDS011;847;48.058;7.810;2022-08-16T13:33:37;4.03;;;3.67;;
1699;SDS011;847;48.058;7.810;2022-08-16T13:36:04;3.77;;;3.57;;
1699;SDS011;847;48.058;7.810;2022-08-16T13:38:34;5.13;;;3.80;;
1699;SDS011;847;48.058;7.810;2022-08-16T13:41:03;4.20;;;3.90;;
1699;SDS011;847;48.058;7.810;2022-08-16T13:43:30;3.60;;;3.30;;
1699;SDS011;847;48.058;7.810;2022-08-16T13:45:57;5.77;;;3.63;;
1699;SDS011;847;48.058;7.810;2022-08-16T13:48:27;5.30;;;3.90;;
1699;SDS011;847;48.058;7.810;2022-08-16T13:50:55;6.50;;;3.33;;
1699;SDS011;847;48.058;7.810;2022-08-16T13:53:23;4.20;;;3.53;;
1699;SDS011;847;48.058;7.810;2022-08-16T13:55:55;4.47;;;4.00;;
1699;SDS011;847;48.058;7.810;2022-08-16T13:58:23;3.60;;;3.30;;
1699;SDS011;847;48.058;7.810;2022-08-16T14:00:50;4.73;;;3.70;;
1699;SDS011;847;48.058;7.810;2022-08-16T14:03:17;4.83;;;4.17;;
1699;SDS011;847;48.058;7.810;2022-08-16T14:05:45;5.67;;;3.40;;
1699;SDS011;847;48.058;7.810;2022-08-16T14:08:11;5.53;;;4.27;;
1699;SDS011;847;48.058;7.810;2022-08-16T14:10:38;3.63;;;3.33;;
1699;SDS011;847;48.058;7.810;2022-08-16T14:13:05;3.47;;;3.17;;
1699;SDS011;847;48.058;7.810;2022-08-16T14:15:33;4.30;;;3.50;;
1699;SDS011;847;48.058;7.810;2022-08-16T14:18:00;3.93;;;3.10;;
1699;SDS011;847;48.058;7.810;2022-08-16T14:20:27;3.60;;;3.07;;
1699;SDS011;847;48.058;7.810;2022-08-16T14:22:53;4.50;;;3.63;;
1699;SDS011;847;48.058;7.810;2022-08-16T14:25:21;3.90;;;3.60;;
1699;SDS011;847;48.058;7.810;2022-08-16T14:27:48;3.60;;;3.23;;
1699;SDS011;847;48.058;7.810;2022-08-16T14:30:16;4.17;;;3.50;;
1699;SDS011;847;48.058;7.810;2022-08-16T14:32:45;4.27;;;3.97;;
1699;SDS011;847;48.058;7.810;2022-08-16T14:35:13;3.23;;;3.03;;
1699;SDS011;847;48.058;7.810;2022-08-16T14:37:42;3.70;;;3.40;;
1699;SDS011;847;48.058;7.810;2022-08-16T14:40:10;3.30;;;3.00;;
1699;SDS011;847;48.058;7.810;2022-08-16T14:42:39;4.13;;;3.40;;
1699;SDS011;847;48.058;7.810;2022-08-16T14:45:09;4.27;;;3.83;;
1699;SDS011;847;48.058;7.810;2022-08-16T14:47:37;3.20;;;3.00;;
1699;SDS011;847;48.058;7.810;2022-08-16T14:50:06;3.80;;;3.50;;
1699;SDS011;847;48.058;7.810;2022-08-16T14:52:35;4.20;;;3.10;;
1699;SDS011;847;48.058;7.810;2022-08-16T14:55:02;3.83;;;3.53;;
1699;SDS011;847;48.058;7.810;2022-08-16T14:57:30;5.37;;;3.67;;
1699;SDS011;847;48.058;7.810;2022-08-16T14:59:57;4.67;;;3.07;;
1699;SDS011;847;48.058;7.810;2022-08-16T15:02:24;3.33;;;3.03;;
1699;SDS011;847;48.058;7.810;2022-08-16T15:04:52;3.80;;;3.33;;
1699;SDS011;847;48.058;7.810;2022-08-16T15:07:21;4.10;;;3.70;;
1699;SDS011;847;48.058;7.810;2022-08-16T15:09:48;5.97;;;3.90;;
1699;SDS011;847;48.058;7.810;2022-08-16T15:12:16;3.50;;;3.20;;
1699;SDS011;847;48.058;7.810;2022-08-16T15:14:46;3.73;;;3.33;;
1699;SDS011;847;48.058;7.810;2022-08-16T15:17:16;3.67;;;3.37;;
1699;SDS011;847;48.058;7.810;2022-08-16T15:19:43;5.73;;;3.33;;
1699;SDS011;847;48.058;7.810;2022-08-16T15:22:13;3.50;;;3.20;;
1699;SDS011;847;48.058;7.810;2022-08-16T15:24:55;3.87;;;3.50;;
1699;SDS011;847;48.058;7.810;2022-08-16T15:27:24;3.67;;;3.47;;
1699;SDS011;847;48.058;7.810;2022-08-16T15:29:51;5.03;;;3.30;;
1699;SDS011;847;48.058;7.810;2022-08-16T15:32:18;3.40;;;3.10;;
1699;SDS011;847;48.058;7.810;2022-08-16T15:34:45;3.40;;;3.10;;